sensor_id;sensor_type;location;lat;lon;timestamp;P1;durP1;ratioP1;P2;durP2;ratioP2
24873;SDS011;12945;42.648;23.370;2022-08-03T00:02:09;2.00;;;1.35;;
24873;SDS011;12945;42.648;23.370;2022-08-03T00:04:35;3.33;;;1.38;;
24873;SDS011;12945;42.648;23.370;2022-08-03T00:07:00;2.28;;;1.30;;
24873;SDS011;12945;42.648;23.370;2022-08-03T00:09:25;1.77;;;1.38;;
24873;SDS011;12945;42.648;23.370;2022-08-03T00:11:51;1.67;;;1.20;;
24873;SDS011;12945;42.648;23.370;2022-08-03T00:14:16;1.55;;;1.20;;
24873;SDS011;12945;42.648;23.370;2022-08-03T00:16:41;4.90;;;1.60;;
24873;SDS011;12945;42.648;23.370;2022-08-03T00:19:07;5.00;;;1.40;;
24873;SDS011;12945;42.648;23.370;2022-08-03T00:21:32;2.95;;;1.55;;
24873;SDS011;12945;42.648;23.370;2022-08-03T00:23:58;4.55;;;1.50;;
24873;SDS011;12945;42.648;23.370;2022-08-03T00:26:23;3.47;;;1.50;;
24873;SDS011;12945;42.648;23.370;2022-08-03T00:28:49;3.22;;;1.30;;
24873;SDS011;12945;42.648;23.370;2022-08-03T00:31:14;2.70;;;1.40;;
24873;SDS011;12945;42.648;23.370;2022-08-03T00:33:40;2.80;;;1.40;;
24873;SDS011;12945;42.648;23.370;2022-08-03T00:36:05;3.58;;;1.70;;
24873;SDS011;12945;42.648;23.370;2022-08-03T00:38:30;5.13;;;1.50;;
24873;SDS011;12945;42.648;23.370;2022-08-03T00:40:56;2.58;;;1.48;;
24873;SDS011;12945;42.648;23.370;2022-08-03T00:43:24;4.55;;;1.70;;
24873;SDS011;12945;42.648;23.370;2022-08-03T00:45:49;1.90;;;1.45;;
24873;SDS011;12945;42.648;23.370;2022-08-03T00:48:14;4.65;;;1.42;;
24873;SDS011;12945;42.648;23.370;2022-08-03T00:50:40;2.80;;;1.60;;
24873;SDS011;12945;42.648;23.370;2022-08-03T00:53:06;2.70;;;1.48;;
24873;SDS011;12945;42.648;23.370;2022-08-03T00:55:32;2.40;;;1.48;;
24873;SDS011;12945;42.648;23.370;2022-08-03T00:57:57;2.40;;;1.50;;
24873;SDS011;12945;42.648;23.370;2022-08-03T01:00:24;3.28;;;1.48;;
24873;SDS011;12945;42.648;23.370;2022-08-03T01:02:50;3.28;;;2.17;;
24873;SDS011;12945;42.648;23.370;2022-08-03T01:05:15;3.42;;;1.63;;
24873;SDS011;12945;42.648;23.370;2022-08-03T01:10:31;4.47;;;1.60;;
24873;SDS011;12945;42.648;23.370;2022-08-03T01:16:29;2.45;;;1.48;;
24873;SDS011;12945;42.648;23.370;2022-08-03T01:21:30;3.08;;;1.40;;
24873;SDS011;12945;42.648;23.370;2022-08-03T01:26:37;2.03;;;1.58;;
24873;SDS011;12945;42.648;23.370;2022-08-03T01:31:58;5.10;;;1.63;;
24873;SDS011;12945;42.648;23.370;2022-08-03T01:34:27;1.88;;;1.42;;
24873;SDS011;12945;42.648;23.370;2022-08-03T01:36:53;2.22;;;1.50;;
24873;SDS011;12945;42.648;23.370;2022-08-03T01:39:20;2.45;;;1.30;;
24873;SDS011;12945;42.648;23.370;2022-08-03T01:41:47;5.40;;;1.63;;
24873;SDS011;12945;42.648;23.370;2022-08-03T01:44:13;4.07;;;1.40;;
24873;SDS011;12945;42.648;23.370;2022-08-03T01:46:40;3.70;;;1.50;;
24873;SDS011;12945;42.648;23.370;2022-08-03T01:49:06;2.33;;;1.50;;
24873;SDS011;12945;42.648;23.370;2022-08-03T01:51:32;1.80;;;1.45;;
24873;SDS011;12945;42.648;23.370;2022-08-03T01:53:58;5.65;;;1.60;;
24873;SDS011;12945;42.648;23.370;2022-08-03T01:56:24;2.42;;;1.70;;
24873;SDS011;12945;42.648;23.370;2022-08-03T01:58:50;1.92;;;1.40;;
24873;SDS011;12945;42.648;23.370;2022-08-03T02:01:17;2.95;;;1.40;;
24873;SDS011;12945;42.648;23.370;2022-08-03T02:03:42;3.40;;;1.60;;
24873;SDS011;12945;42.648;23.370;2022-08-03T02:06:09;3.97;;;1.60;;
24873;SDS011;12945;42.648;23.370;2022-08-03T02:08:34;6.22;;;1.80;;
24873;SDS011;12945;42.648;23.370;2022-08-03T02:10:59;2.50;;;1.40;;
24873;SDS011;12945;42.648;23.370;2022-08-03T02:13:26;4.15;;;1.90;;
24873;SDS011;12945;42.648;23.370;2022-08-03T02:15:52;4.65;;;1.50;;
24873;SDS011;12945;42.648;23.370;2022-08-03T02:18:19;2.42;;;1.70;;
24873;SDS011;12945;42.648;23.370;2022-08-03T02:20:45;2.70;;;1.52;;
24873;SDS011;12945;42.648;23.370;2022-08-03T02:23:11;2.95;;;1.70;;
24873;SDS011;12945;42.648;23.370;2022-08-03T02:25:46;3.00;;;1.85;;
24873;SDS011;12945;42.648;23.370;2022-08-03T02:28:21;7.30;;;1.50;;
24873;SDS011;12945;42.648;23.370;2022-08-03T02:30:51;3.90;;;1.70;;
24873;SDS011;12945;42.648;23.370;2022-08-03T02:33:19;2.50;;;1.60;;
24873;SDS011;12945;42.648;23.370;2022-08-03T02:35:47;3.20;;;1.73;;
24873;SDS011;12945;42.648;23.370;2022-08-03T02:38:12;4.22;;;1.70;;
24873;SDS011;12945;42.648;23.370;2022-08-03T02:40:38;3.00;;;1.75;;
24873;SDS011;12945;42.648;23.370;2022-08-03T02:43:06;3.10;;;1.65;;
24873;SDS011;12945;42.648;23.370;2022-08-03T02:45:32;3.40;;;1.65;;
24873;SDS011;12945;42.648;23.370;2022-08-03T02:48:00;3.35;;;1.80;;
24873;SDS011;12945;42.648;23.370;2022-08-03T02:50:26;2.88;;;1.88;;
24873;SDS011;12945;42.648;23.370;2022-08-03T02:52:54;4.00;;;1.88;;
24873;SDS011;12945;42.648;23.370;2022-08-03T02:55:20;4.97;;;1.80;;
24873;SDS011;12945;42.648;23.370;2022-08-03T02:57:46;2.60;;;1.77;;
24873;SDS011;12945;42.648;23.370;2022-08-03T03:00:12;4.57;;;2.00;;
24873;SDS011;12945;42.648;23.370;2022-08-03T03:02:38;3.88;;;2.20;;
24873;SDS011;12945;42.648;23.370;2022-08-03T03:05:04;3.25;;;2.17;;
24873;SDS011;12945;42.648;23.370;2022-08-03T03:07:30;2.35;;;2.05;;
24873;SDS011;12945;42.648;23.370;2022-08-03T03:09:55;4.68;;;2.20;;
24873;SDS011;12945;42.648;23.370;2022-08-03T03:12:21;9.18;;;2.00;;
24873;SDS011;12945;42.648;23.370;2022-08-03T03:14:46;6.07;;;2.17;;
24873;SDS011;12945;42.648;23.370;2022-08-03T03:17:12;4.00;;;2.50;;
24873;SDS011;12945;42.648;23.370;2022-08-03T03:19:38;5.28;;;2.03;;
24873;SDS011;12945;42.648;23.370;2022-08-03T03:22:06;4.28;;;2.50;;
24873;SDS011;12945;42.648;23.370;2022-08-03T03:24:32;6.13;;;2.95;;
24873;SDS011;12945;42.648;23.370;2022-08-03T03:26:58;3.88;;;2.45;;
24873;SDS011;12945;42.648;23.370;2022-08-03T03:29:24;9.93;;;2.58;;
24873;SDS011;12945;42.648;23.370;2022-08-03T03:31:49;5.07;;;2.25;;
24873;SDS011;12945;42.648;23.370;2022-08-03T03:34:15;6.00;;;2.83;;
24873;SDS011;12945;42.648;23.370;2022-08-03T03:36:41;6.57;;;2.85;;
24873;SDS011;12945;42.648;23.370;2022-08-03T03:39:06;5.82;;;2.78;;
24873;SDS011;12945;42.648;23.370;2022-08-03T03:41:32;4.75;;;2.45;;
24873;SDS011;12945;42.648;23.370;2022-08-03T03:43:58;4.53;;;2.50;;
24873;SDS011;12945;42.648;23.370;2022-08-03T03:46:24;8.38;;;2.35;;
24873;SDS011;12945;42.648;23.370;2022-08-03T03:48:49;4.20;;;2.53;;
24873;SDS011;12945;42.648;23.370;2022-08-03T03:51:15;5.85;;;2.30;;
24873;SDS011;12945;42.648;23.370;2022-08-03T03:53:52;3.15;;;2.33;;
24873;SDS011;12945;42.648;23.370;2022-08-03T03:56:18;7.53;;;2.40;;
24873;SDS011;12945;42.648;23.370;2022-08-03T03:58:43;5.68;;;2.33;;
24873;SDS011;12945;42.648;23.370;2022-08-03T04:01:09;5.75;;;2.38;;
24873;SDS011;12945;42.648;23.370;2022-08-03T04:03:34;6.90;;;2.72;;
24873;SDS011;12945;42.648;23.370;2022-08-03T04:06:00;4.15;;;2.50;;
24873;SDS011;12945;42.648;23.370;2022-08-03T04:08:44;7.95;;;2.72;;
24873;SDS011;12945;42.648;23.370;2022-08-03T04:11:29;6.82;;;2.40;;
24873;SDS011;12945;42.648;23.370;2022-08-03T04:13:56;4.50;;;2.72;;
24873;SDS011;12945;42.648;23.370;2022-08-03T04:16:27;5.43;;;2.45;;
24873;SDS011;12945;42.648;23.370;2022-08-03T04:21:18;7.72;;;2.85;;
24873;SDS011;12945;42.648;23.370;2022-08-03T04:23:47;6.70;;;3.33;;
24873;SDS011;12945;42.648;23.370;2022-08-03T04:26:14;6.50;;;3.10;;
24873;SDS011;12945;42.648;23.370;2022-08-03T04:28:40;7.32;;;3.47;;
24873;SDS011;12945;42.648;23.370;2022-08-03T04:31:06;6.97;;;3.75;;
24873;SDS011;12945;42.648;23.370;2022-08-03T04:33:32;11.48;;;3.40;;
24873;SDS011;12945;42.648;23.370;2022-08-03T04:35:59;8.57;;;3.80;;
24873;SDS011;12945;42.648;23.370;2022-08-03T04:38:25;9.00;;;3.60;;
24873;SDS011;12945;42.648;23.370;2022-08-03T04:40:51;7.78;;;3.30;;
24873;SDS011;12945;42.648;23.370;2022-08-03T04:43:17;6.13;;;3.45;;
24873;SDS011;12945;42.648;23.370;2022-08-03T04:45:45;6.13;;;3.47;;
24873;SDS011;12945;42.648;23.370;2022-08-03T04:48:11;6.63;;;3.50;;
24873;SDS011;12945;42.648;23.370;2022-08-03T04:50:37;8.13;;;3.47;;
24873;SDS011;12945;42.648;23.370;2022-08-03T04:53:04;9.35;;;3.90;;
24873;SDS011;12945;42.648;23.370;2022-08-03T04:55:30;12.68;;;4.20;;
24873;SDS011;12945;42.648;23.370;2022-08-03T04:57:56;11.35;;;3.88;;
24873;SDS011;12945;42.648;23.370;2022-08-03T05:00:21;9.70;;;3.70;;
24873;SDS011;12945;42.648;23.370;2022-08-03T05:02:47;9.93;;;3.83;;
24873;SDS011;12945;42.648;23.370;2022-08-03T05:05:12;7.35;;;4.10;;
24873;SDS011;12945;42.648;23.370;2022-08-03T05:07:38;12.75;;;4.53;;
24873;SDS011;12945;42.648;23.370;2022-08-03T05:10:04;8.07;;;3.92;;
24873;SDS011;12945;42.648;23.370;2022-08-03T05:12:29;9.90;;;3.47;;
24873;SDS011;12945;42.648;23.370;2022-08-03T05:14:54;7.25;;;2.90;;
24873;SDS011;12945;42.648;23.370;2022-08-03T05:17:20;9.68;;;2.95;;
24873;SDS011;12945;42.648;23.370;2022-08-03T05:19:45;5.38;;;2.47;;
24873;SDS011;12945;42.648;23.370;2022-08-03T05:22:11;4.95;;;2.50;;
24873;SDS011;12945;42.648;23.370;2022-08-03T05:24:36;5.30;;;2.15;;
24873;SDS011;12945;42.648;23.370;2022-08-03T05:27:02;8.95;;;2.72;;
24873;SDS011;12945;42.648;23.370;2022-08-03T05:29:27;5.63;;;2.90;;
24873;SDS011;12945;42.648;23.370;2022-08-03T05:31:52;10.70;;;2.85;;
24873;SDS011;12945;42.648;23.370;2022-08-03T05:34:17;3.63;;;2.63;;
24873;SDS011;12945;42.648;23.370;2022-08-03T05:36:43;7.57;;;2.42;;
24873;SDS011;12945;42.648;23.370;2022-08-03T05:39:08;5.60;;;3.05;;
24873;SDS011;12945;42.648;23.370;2022-08-03T05:41:33;8.57;;;3.15;;
24873;SDS011;12945;42.648;23.370;2022-08-03T05:43:59;10.05;;;3.13;;
24873;SDS011;12945;42.648;23.370;2022-08-03T05:46:25;7.13;;;3.40;;
24873;SDS011;12945;42.648;23.370;2022-08-03T05:48:50;4.50;;;3.10;;
24873;SDS011;12945;42.648;23.370;2022-08-03T05:51:16;11.32;;;3.20;;
24873;SDS011;12945;42.648;23.370;2022-08-03T05:53:41;13.02;;;3.75;;
24873;SDS011;12945;42.648;23.370;2022-08-03T05:59:15;6.78;;;3.38;;
24873;SDS011;12945;42.648;23.370;2022-08-03T06:01:41;9.88;;;3.60;;
24873;SDS011;12945;42.648;23.370;2022-08-03T06:04:06;8.63;;;3.22;;
24873;SDS011;12945;42.648;23.370;2022-08-03T06:06:32;5.47;;;3.30;;
24873;SDS011;12945;42.648;23.370;2022-08-03T06:08:57;9.07;;;3.33;;
24873;SDS011;12945;42.648;23.370;2022-08-03T06:11:22;10.43;;;3.30;;
24873;SDS011;12945;42.648;23.370;2022-08-03T06:13:48;11.40;;;3.08;;
24873;SDS011;12945;42.648;23.370;2022-08-03T06:16:14;7.70;;;2.70;;
24873;SDS011;12945;42.648;23.370;2022-08-03T06:18:39;12.70;;;2.90;;
24873;SDS011;12945;42.648;23.370;2022-08-03T06:21:04;10.32;;;4.10;;
24873;SDS011;12945;42.648;23.370;2022-08-03T06:23:30;6.07;;;3.00;;
24873;SDS011;12945;42.648;23.370;2022-08-03T06:25:55;6.57;;;3.08;;
24873;SDS011;12945;42.648;23.370;2022-08-03T06:28:20;8.63;;;3.22;;
24873;SDS011;12945;42.648;23.370;2022-08-03T06:30:46;7.85;;;3.10;;
24873;SDS011;12945;42.648;23.370;2022-08-03T06:33:11;7.75;;;3.30;;
24873;SDS011;12945;42.648;23.370;2022-08-03T06:35:36;5.47;;;3.40;;
24873;SDS011;12945;42.648;23.370;2022-08-03T06:38:02;12.18;;;3.40;;
24873;SDS011;12945;42.648;23.370;2022-08-03T06:40:27;6.70;;;3.70;;
24873;SDS011;12945;42.648;23.370;2022-08-03T06:43:00;6.18;;;3.10;;
24873;SDS011;12945;42.648;23.370;2022-08-03T06:45:26;6.35;;;3.05;;
24873;SDS011;12945;42.648;23.370;2022-08-03T06:48:03;6.07;;;3.45;;
24873;SDS011;12945;42.648;23.370;2022-08-03T06:50:28;7.57;;;2.60;;
24873;SDS011;12945;42.648;23.370;2022-08-03T06:52:54;7.65;;;2.95;;
24873;SDS011;12945;42.648;23.370;2022-08-03T06:55:19;8.95;;;3.10;;
24873;SDS011;12945;42.648;23.370;2022-08-03T06:57:44;10.80;;;3.67;;
24873;SDS011;12945;42.648;23.370;2022-08-03T07:00:10;7.60;;;3.10;;
24873;SDS011;12945;42.648;23.370;2022-08-03T07:02:36;14.23;;;3.72;;
24873;SDS011;12945;42.648;23.370;2022-08-03T07:05:01;8.30;;;2.75;;
24873;SDS011;12945;42.648;23.370;2022-08-03T07:07:26;12.45;;;3.42;;
24873;SDS011;12945;42.648;23.370;2022-08-03T07:09:52;7.10;;;3.13;;
24873;SDS011;12945;42.648;23.370;2022-08-03T07:12:17;5.22;;;2.88;;
24873;SDS011;12945;42.648;23.370;2022-08-03T07:14:42;5.55;;;3.13;;
24873;SDS011;12945;42.648;23.370;2022-08-03T07:17:08;10.18;;;4.15;;
24873;SDS011;12945;42.648;23.370;2022-08-03T07:19:33;15.10;;;4.05;;
24873;SDS011;12945;42.648;23.370;2022-08-03T07:21:59;8.15;;;3.60;;
24873;SDS011;12945;42.648;23.370;2022-08-03T07:24:24;10.70;;;3.42;;
24873;SDS011;12945;42.648;23.370;2022-08-03T07:26:49;7.55;;;3.90;;
24873;SDS011;12945;42.648;23.370;2022-08-03T07:29:15;8.05;;;3.70;;
24873;SDS011;12945;42.648;23.370;2022-08-03T07:31:40;7.97;;;3.83;;
24873;SDS011;12945;42.648;23.370;2022-08-03T07:34:06;8.07;;;4.03;;
24873;SDS011;12945;42.648;23.370;2022-08-03T07:36:31;10.07;;;4.22;;
24873;SDS011;12945;42.648;23.370;2022-08-03T07:38:56;8.32;;;3.47;;
24873;SDS011;12945;42.648;23.370;2022-08-03T07:41:22;7.30;;;4.00;;
24873;SDS011;12945;42.648;23.370;2022-08-03T07:43:47;7.38;;;3.53;;
24873;SDS011;12945;42.648;23.370;2022-08-03T07:46:12;11.77;;;3.90;;
24873;SDS011;12945;42.648;23.370;2022-08-03T07:48:38;7.43;;;3.70;;
24873;SDS011;12945;42.648;23.370;2022-08-03T07:51:04;13.93;;;3.92;;
24873;SDS011;12945;42.648;23.370;2022-08-03T07:53:30;6.07;;;3.50;;
24873;SDS011;12945;42.648;23.370;2022-08-03T07:55:55;11.90;;;3.67;;
24873;SDS011;12945;42.648;23.370;2022-08-03T07:58:21;7.82;;;4.03;;
24873;SDS011;12945;42.648;23.370;2022-08-03T08:00:47;13.93;;;3.83;;
24873;SDS011;12945;42.648;23.370;2022-08-03T08:03:12;5.97;;;3.35;;
24873;SDS011;12945;42.648;23.370;2022-08-03T08:05:38;11.73;;;3.03;;
24873;SDS011;12945;42.648;23.370;2022-08-03T08:08:03;8.88;;;3.45;;
24873;SDS011;12945;42.648;23.370;2022-08-03T08:10:29;5.75;;;3.60;;
24873;SDS011;12945;42.648;23.370;2022-08-03T08:12:54;10.90;;;3.67;;
24873;SDS011;12945;42.648;23.370;2022-08-03T08:15:20;13.38;;;3.42;;
24873;SDS011;12945;42.648;23.370;2022-08-03T08:17:49;8.63;;;3.47;;
24873;SDS011;12945;42.648;23.370;2022-08-03T08:20:19;7.45;;;3.60;;
24873;SDS011;12945;42.648;23.370;2022-08-03T08:22:45;7.88;;;3.90;;
24873;SDS011;12945;42.648;23.370;2022-08-03T08:25:10;5.60;;;3.45;;
24873;SDS011;12945;42.648;23.370;2022-08-03T08:27:45;12.40;;;3.60;;
24873;SDS011;12945;42.648;23.370;2022-08-03T08:30:11;9.02;;;3.38;;
24873;SDS011;12945;42.648;23.370;2022-08-03T08:32:37;6.18;;;3.28;;
24873;SDS011;12945;42.648;23.370;2022-08-03T08:35:06;10.13;;;3.20;;
24873;SDS011;12945;42.648;23.370;2022-08-03T08:37:32;7.18;;;3.10;;
24873;SDS011;12945;42.648;23.370;2022-08-03T08:39:57;7.10;;;2.90;;
24873;SDS011;12945;42.648;23.370;2022-08-03T08:42:26;12.80;;;3.70;;
24873;SDS011;12945;42.648;23.370;2022-08-03T08:44:51;10.77;;;3.30;;
24873;SDS011;12945;42.648;23.370;2022-08-03T08:47:29;12.70;;;3.80;;
24873;SDS011;12945;42.648;23.370;2022-08-03T08:50:10;7.03;;;3.13;;
24873;SDS011;12945;42.648;23.370;2022-08-03T08:52:37;9.90;;;3.47;;
24873;SDS011;12945;42.648;23.370;2022-08-03T08:55:04;14.90;;;5.07;;
24873;SDS011;12945;42.648;23.370;2022-08-03T08:57:34;9.95;;;3.67;;
24873;SDS011;12945;42.648;23.370;2022-08-03T09:00:02;8.55;;;3.03;;
24873;SDS011;12945;42.648;23.370;2022-08-03T09:02:28;12.63;;;3.67;;
24873;SDS011;12945;42.648;23.370;2022-08-03T09:04:54;6.60;;;3.20;;
24873;SDS011;12945;42.648;23.370;2022-08-03T09:07:19;9.70;;;3.28;;
24873;SDS011;12945;42.648;23.370;2022-08-03T09:09:45;8.48;;;3.25;;
24873;SDS011;12945;42.648;23.370;2022-08-03T09:12:10;5.57;;;2.92;;
24873;SDS011;12945;42.648;23.370;2022-08-03T09:14:35;4.82;;;3.15;;
24873;SDS011;12945;42.648;23.370;2022-08-03T09:17:02;7.00;;;2.83;;
24873;SDS011;12945;42.648;23.370;2022-08-03T09:19:29;9.65;;;3.20;;
24873;SDS011;12945;42.648;23.370;2022-08-03T09:22:08;13.88;;;3.70;;
24873;SDS011;12945;42.648;23.370;2022-08-03T09:24:35;6.25;;;2.70;;
24873;SDS011;12945;42.648;23.370;2022-08-03T09:27:00;6.13;;;2.65;;
24873;SDS011;12945;42.648;23.370;2022-08-03T09:29:25;5.50;;;2.50;;
24873;SDS011;12945;42.648;23.370;2022-08-03T09:31:59;8.25;;;2.53;;
24873;SDS011;12945;42.648;23.370;2022-08-03T09:34:25;5.85;;;2.90;;
24873;SDS011;12945;42.648;23.370;2022-08-03T09:36:52;7.07;;;2.60;;
24873;SDS011;12945;42.648;23.370;2022-08-03T09:39:19;5.97;;;2.78;;
24873;SDS011;12945;42.648;23.370;2022-08-03T09:41:45;3.38;;;2.67;;
24873;SDS011;12945;42.648;23.370;2022-08-03T09:44:10;5.90;;;2.30;;
24873;SDS011;12945;42.648;23.370;2022-08-03T09:46:49;5.75;;;2.55;;
24873;SDS011;12945;42.648;23.370;2022-08-03T09:49:14;7.97;;;2.45;;
24873;SDS011;12945;42.648;23.370;2022-08-03T09:51:40;7.75;;;2.30;;
24873;SDS011;12945;42.648;23.370;2022-08-03T09:54:05;3.47;;;2.08;;
24873;SDS011;12945;42.648;23.370;2022-08-03T09:56:38;8.02;;;2.00;;
24873;SDS011;12945;42.648;23.370;2022-08-03T09:59:03;9.07;;;2.38;;
24873;SDS011;12945;42.648;23.370;2022-08-03T10:01:32;3.35;;;1.67;;
24873;SDS011;12945;42.648;23.370;2022-08-03T10:06:24;3.53;;;2.00;;
24873;SDS011;12945;42.648;23.370;2022-08-03T10:09:04;4.88;;;2.20;;
24873;SDS011;12945;42.648;23.370;2022-08-03T10:11:30;6.63;;;2.20;;
24873;SDS011;12945;42.648;23.370;2022-08-03T10:13:56;6.80;;;1.98;;
24873;SDS011;12945;42.648;23.370;2022-08-03T10:16:21;5.75;;;2.08;;
24873;SDS011;12945;42.648;23.370;2022-08-03T10:18:47;7.15;;;2.63;;
24873;SDS011;12945;42.648;23.370;2022-08-03T10:21:12;4.15;;;2.28;;
24873;SDS011;12945;42.648;23.370;2022-08-03T10:23:40;6.13;;;2.42;;
24873;SDS011;12945;42.648;23.370;2022-08-03T10:26:06;5.30;;;2.10;;
24873;SDS011;12945;42.648;23.370;2022-08-03T10:28:36;3.75;;;2.10;;
24873;SDS011;12945;42.648;23.370;2022-08-03T10:31:04;13.05;;;2.20;;
24873;SDS011;12945;42.648;23.370;2022-08-03T10:33:33;4.50;;;2.05;;
24873;SDS011;12945;42.648;23.370;2022-08-03T10:36:01;9.07;;;2.08;;
24873;SDS011;12945;42.648;23.370;2022-08-03T10:38:32;5.75;;;2.25;;
24873;SDS011;12945;42.648;23.370;2022-08-03T10:40:59;3.35;;;1.80;;
24873;SDS011;12945;42.648;23.370;2022-08-03T10:43:27;3.90;;;2.10;;
24873;SDS011;12945;42.648;23.370;2022-08-03T10:45:58;2.95;;;2.05;;
24873;SDS011;12945;42.648;23.370;2022-08-03T10:48:24;4.65;;;1.85;;
24873;SDS011;12945;42.648;23.370;2022-08-03T10:50:50;5.32;;;2.10;;
24873;SDS011;12945;42.648;23.370;2022-08-03T10:53:38;3.42;;;1.90;;
24873;SDS011;12945;42.648;23.370;2022-08-03T10:56:04;7.07;;;2.20;;
24873;SDS011;12945;42.648;23.370;2022-08-03T10:58:50;3.15;;;2.70;;
24873;SDS011;12945;42.648;23.370;2022-08-03T11:01:15;2.15;;;1.88;;
24873;SDS011;12945;42.648;23.370;2022-08-03T11:06:17;4.53;;;1.85;;
24873;SDS011;12945;42.648;23.370;2022-08-03T11:08:43;2.15;;;1.52;;
24873;SDS011;12945;42.648;23.370;2022-08-03T11:14:00;2.40;;;1.60;;
24873;SDS011;12945;42.648;23.370;2022-08-03T11:16:29;2.92;;;1.75;;
24873;SDS011;12945;42.648;23.370;2022-08-03T11:18:56;2.92;;;1.65;;
24873;SDS011;12945;42.648;23.370;2022-08-03T11:21:43;4.93;;;1.83;;
24873;SDS011;12945;42.648;23.370;2022-08-03T11:24:07;2.28;;;1.70;;
24873;SDS011;12945;42.648;23.370;2022-08-03T11:26:32;3.60;;;1.70;;
24873;SDS011;12945;42.648;23.370;2022-08-03T11:31:42;7.72;;;1.70;;
24873;SDS011;12945;42.648;23.370;2022-08-03T11:34:09;3.60;;;1.85;;
24873;SDS011;12945;42.648;23.370;2022-08-03T11:39:18;2.40;;;1.50;;
24873;SDS011;12945;42.648;23.370;2022-08-03T11:41:43;2.45;;;1.83;;
24873;SDS011;12945;42.648;23.370;2022-08-03T11:44:09;7.85;;;2.00;;
24873;SDS011;12945;42.648;23.370;2022-08-03T11:46:54;2.80;;;1.60;;
24873;SDS011;12945;42.648;23.370;2022-08-03T11:49:20;5.50;;;1.80;;
24873;SDS011;12945;42.648;23.370;2022-08-03T11:51:47;6.70;;;1.65;;
24873;SDS011;12945;42.648;23.370;2022-08-03T11:54:18;2.30;;;1.80;;
24873;SDS011;12945;42.648;23.370;2022-08-03T11:56:44;6.28;;;1.70;;
24873;SDS011;12945;42.648;23.370;2022-08-03T11:59:10;16.77;;;2.05;;
24873;SDS011;12945;42.648;23.370;2022-08-03T12:01:35;5.63;;;2.30;;
24873;SDS011;12945;42.648;23.370;2022-08-03T12:04:02;2.60;;;1.50;;
24873;SDS011;12945;42.648;23.370;2022-08-03T12:06:28;4.20;;;1.90;;
24873;SDS011;12945;42.648;23.370;2022-08-03T12:08:53;6.18;;;1.85;;
24873;SDS011;12945;42.648;23.370;2022-08-03T12:11:19;2.92;;;1.80;;
24873;SDS011;12945;42.648;23.370;2022-08-03T12:13:45;3.22;;;1.92;;
24873;SDS011;12945;42.648;23.370;2022-08-03T12:16:29;2.55;;;1.92;;
24873;SDS011;12945;42.648;23.370;2022-08-03T12:18:58;5.88;;;1.90;;
24873;SDS011;12945;42.648;23.370;2022-08-03T12:21:27;3.20;;;2.20;;
24873;SDS011;12945;42.648;23.370;2022-08-03T12:24:02;9.15;;;1.95;;
24873;SDS011;12945;42.648;23.370;2022-08-03T12:26:28;5.18;;;2.00;;
24873;SDS011;12945;42.648;23.370;2022-08-03T12:28:54;7.72;;;2.08;;
24873;SDS011;12945;42.648;23.370;2022-08-03T12:31:19;6.45;;;1.98;;
24873;SDS011;12945;42.648;23.370;2022-08-03T12:36:22;3.35;;;1.80;;
24873;SDS011;12945;42.648;23.370;2022-08-03T12:38:58;3.08;;;2.30;;
24873;SDS011;12945;42.648;23.370;2022-08-03T12:41:26;3.42;;;2.00;;
24873;SDS011;12945;42.648;23.370;2022-08-03T12:43:52;3.55;;;2.00;;
24873;SDS011;12945;42.648;23.370;2022-08-03T12:46:18;8.30;;;2.10;;
24873;SDS011;12945;42.648;23.370;2022-08-03T12:51:31;5.03;;;2.50;;
24873;SDS011;12945;42.648;23.370;2022-08-03T12:53:57;3.17;;;1.67;;
24873;SDS011;12945;42.648;23.370;2022-08-03T12:56:23;5.57;;;1.90;;
24873;SDS011;12945;42.648;23.370;2022-08-03T12:58:49;2.38;;;1.67;;
24873;SDS011;12945;42.648;23.370;2022-08-03T13:01:15;2.58;;;1.88;;
24873;SDS011;12945;42.648;23.370;2022-08-03T13:03:45;5.32;;;1.80;;
24873;SDS011;12945;42.648;23.370;2022-08-03T13:06:11;2.10;;;1.50;;
24873;SDS011;12945;42.648;23.370;2022-08-03T13:08:37;2.15;;;1.90;;
24873;SDS011;12945;42.648;23.370;2022-08-03T13:11:36;4.60;;;1.70;;
24873;SDS011;12945;42.648;23.370;2022-08-03T13:13:54;3.92;;;1.83;;
24873;SDS011;12945;42.648;23.370;2022-08-03T13:16:21;6.47;;;2.15;;
24873;SDS011;12945;42.648;23.370;2022-08-03T13:18:47;3.45;;;2.05;;
24873;SDS011;12945;42.648;23.370;2022-08-03T13:21:13;6.47;;;2.05;;
24873;SDS011;12945;42.648;23.370;2022-08-03T13:23:38;5.20;;;2.25;;
24873;SDS011;12945;42.648;23.370;2022-08-03T13:26:03;3.58;;;2.08;;
24873;SDS011;12945;42.648;23.370;2022-08-03T13:28:29;4.10;;;2.20;;
24873;SDS011;12945;42.648;23.370;2022-08-03T13:30:54;7.00;;;2.50;;
24873;SDS011;12945;42.648;23.370;2022-08-03T13:33:20;5.05;;;2.40;;
24873;SDS011;12945;42.648;23.370;2022-08-03T13:35:45;4.28;;;2.28;;
24873;SDS011;12945;42.648;23.370;2022-08-03T13:38:10;5.35;;;2.28;;
24873;SDS011;12945;42.648;23.370;2022-08-03T13:40:35;3.38;;;2.08;;
24873;SDS011;12945;42.648;23.370;2022-08-03T13:43:02;3.67;;;2.40;;
24873;SDS011;12945;42.648;23.370;2022-08-03T13:45:27;6.65;;;2.40;;
24873;SDS011;12945;42.648;23.370;2022-08-03T13:47:53;4.95;;;2.20;;
24873;SDS011;12945;42.648;23.370;2022-08-03T13:50:18;5.53;;;2.33;;
24873;SDS011;12945;42.648;23.370;2022-08-03T13:52:44;7.10;;;2.42;;
24873;SDS011;12945;42.648;23.370;2022-08-03T13:55:10;5.45;;;2.47;;
24873;SDS011;12945;42.648;23.370;2022-08-03T13:57:38;5.68;;;2.33;;
24873;SDS011;12945;42.648;23.370;2022-08-03T14:00:04;6.55;;;2.58;;
24873;SDS011;12945;42.648;23.370;2022-08-03T14:02:30;7.28;;;2.83;;
24873;SDS011;12945;42.648;23.370;2022-08-03T14:04:55;3.50;;;2.28;;
24873;SDS011;12945;42.648;23.370;2022-08-03T14:07:21;7.22;;;2.70;;
24873;SDS011;12945;42.648;23.370;2022-08-03T14:09:46;4.53;;;2.45;;
24873;SDS011;12945;42.648;23.370;2022-08-03T14:12:11;7.63;;;2.70;;
24873;SDS011;12945;42.648;23.370;2022-08-03T14:14:37;5.70;;;2.30;;
24873;SDS011;12945;42.648;23.370;2022-08-03T14:17:02;8.27;;;3.38;;
24873;SDS011;12945;42.648;23.370;2022-08-03T14:19:27;6.22;;;2.60;;
24873;SDS011;12945;42.648;23.370;2022-08-03T14:21:53;6.32;;;2.90;;
24873;SDS011;12945;42.648;23.370;2022-08-03T14:24:18;6.45;;;3.00;;
24873;SDS011;12945;42.648;23.370;2022-08-03T14:26:43;4.68;;;2.58;;
24873;SDS011;12945;42.648;23.370;2022-08-03T14:29:09;5.45;;;2.92;;
24873;SDS011;12945;42.648;23.370;2022-08-03T14:31:35;7.47;;;4.15;;
24873;SDS011;12945;42.648;23.370;2022-08-03T14:34:00;7.20;;;3.67;;
24873;SDS011;12945;42.648;23.370;2022-08-03T14:36:25;5.50;;;3.67;;
24873;SDS011;12945;42.648;23.370;2022-08-03T14:38:51;4.82;;;2.95;;
24873;SDS011;12945;42.648;23.370;2022-08-03T14:41:16;7.47;;;2.83;;
24873;SDS011;12945;42.648;23.370;2022-08-03T14:43:42;5.85;;;2.50;;
24873;SDS011;12945;42.648;23.370;2022-08-03T14:46:07;3.38;;;2.20;;
24873;SDS011;12945;42.648;23.370;2022-08-03T14:48:33;2.72;;;2.10;;
24873;SDS011;12945;42.648;23.370;2022-08-03T14:50:58;7.88;;;2.40;;
24873;SDS011;12945;42.648;23.370;2022-08-03T14:53:24;3.30;;;2.88;;
24873;SDS011;12945;42.648;23.370;2022-08-03T14:55:49;4.88;;;2.95;;
24873;SDS011;12945;42.648;23.370;2022-08-03T14:58:20;4.07;;;2.20;;
24873;SDS011;12945;42.648;23.370;2022-08-03T15:00:46;5.97;;;2.42;;
24873;SDS011;12945;42.648;23.370;2022-08-03T15:03:11;3.38;;;2.30;;
24873;SDS011;12945;42.648;23.370;2022-08-03T15:05:36;8.30;;;2.50;;
24873;SDS011;12945;42.648;23.370;2022-08-03T15:08:02;4.90;;;2.13;;
24873;SDS011;12945;42.648;23.370;2022-08-03T15:10:27;3.85;;;2.05;;